createdAt,value
2022-10-17T00:01:16.477Z,101776.09
2022-10-17T00:04:31.515Z,101781.22
2022-10-17T00:07:40.403Z,101784.47
2022-10-17T00:10:58.864Z,101774.25
2022-10-17T00:14:16.651Z,101783.06
2022-10-17T00:17:25.281Z,101772.09
2022-10-17T00:20:35.391Z,101794.16
2022-10-17T00:23:44.515Z,101777.81
2022-10-17T00:26:52.396Z,101780.34
2022-10-17T00:30:01.068Z,101787.91
2022-10-17T00:33:09.499Z,101790.88
2022-10-17T00:36:22.845Z,101751.31
2022-10-17T00:39:31.500Z,101780.22
2022-10-17T00:42:39.914Z,101782.63
2022-10-17T00:45:54.406Z,101786.19
2022-10-17T00:48:58.649Z,101797.44
2022-10-17T00:52:19.493Z,101787.31
2022-10-17T00:55:27.152Z,101790.88
2022-10-17T00:58:42.426Z,101782.50
2022-10-17T01:01:57.139Z,101783.59
2022-10-17T01:05:12.419Z,101784.06
2022-10-17T01:08:21.411Z,101777.62
2022-10-17T01:11:44.299Z,101784.31
2022-10-17T01:15:20.420Z,101765.97
2022-10-17T01:19:00.444Z,101786.28
2022-10-17T01:22:21.032Z,101783.16
2022-10-17T01:25:59.497Z,101776.78
2022-10-17T01:29:23.238Z,101779.47
2022-10-17T01:32:46.474Z,101778.75
2022-10-17T01:36:12.496Z,101726.75
2022-10-17T01:39:30.151Z,101768.22
2022-10-17T01:42:58.537Z,101778.31
2022-10-17T01:46:16.330Z,101771.44
2022-10-17T01:49:31.464Z,101783.00
2022-10-17T01:52:58.892Z,101782.00
2022-10-17T01:56:03.804Z,101774.34
2022-10-17T01:59:28.551Z,101787.84
2022-10-17T02:02:38.516Z,101791.41
2022-10-17T02:05:47.036Z,101795.47
2022-10-17T02:08:57.538Z,101774.69
2022-10-17T02:12:35.551Z,101787.78
2022-10-17T02:16:04.582Z,101789.03
2022-10-17T02:19:34.681Z,101791.31
2022-10-17T02:22:54.488Z,101787.16
2022-10-17T02:26:22.485Z,101784.19
2022-10-17T02:29:37.480Z,101787.28
2022-10-17T02:32:59.033Z,101796.03
2022-10-17T02:36:13.474Z,101798.50
2022-10-17T02:39:31.447Z,101797.19
2022-10-17T02:42:35.019Z,101798.63
2022-10-17T02:45:49.467Z,101807.84
2022-10-17T02:48:55.542Z,101794.62
2022-10-17T02:52:24.524Z,101796.47
2022-10-17T02:55:34.075Z,101798.12
2022-10-17T02:58:52.476Z,101815.63
2022-10-17T03:02:05.129Z,101814.78
2022-10-17T03:05:14.622Z,101816.16
2022-10-17T03:08:24.019Z,101821.56
2022-10-17T03:11:33.515Z,101821.84
2022-10-17T03:14:48.727Z,101820.53
2022-10-17T03:17:57.468Z,101819.66
2022-10-17T03:21:12.491Z,101805.41
2022-10-17T03:24:14.339Z,101825.59
2022-10-17T03:27:29.681Z,101833.09
2022-10-17T03:30:38.915Z,101836.22
2022-10-17T03:33:47.582Z,101835.09
2022-10-17T03:37:02.539Z,101817.06
2022-10-17T03:40:11.283Z,101847.25
2022-10-17T03:43:19.529Z,101850.34
2022-10-17T03:46:34.560Z,101844.09
2022-10-17T03:49:42.500Z,101857.50
2022-10-17T03:52:51.159Z,101856.78
2022-10-17T03:55:59.495Z,101855.59
2022-10-17T03:59:19.534Z,101862.56
2022-10-17T04:02:28.180Z,101865.69
2022-10-17T04:05:42.536Z,101860.28
2022-10-17T04:08:44.625Z,101873.50
2022-10-17T04:11:59.711Z,101871.06
2022-10-17T04:15:10.313Z,101871.94
2022-10-17T04:18:25.537Z,101884.06
2022-10-17T04:21:34.323Z,101873.97
2022-10-17T04:24:49.560Z,101888.88
2022-10-17T04:27:58.098Z,101891.44
2022-10-17T04:31:08.501Z,101885.56
2022-10-17T04:34:23.528Z,101885.00
2022-10-17T04:37:32.325Z,101898.50
2022-10-17T04:40:40.543Z,101897.31
2022-10-17T04:43:55.528Z,101894.72
2022-10-17T04:46:57.424Z,101898.19
2022-10-17T04:50:13.526Z,101898.19
2022-10-17T04:53:15.269Z,101902.97
2022-10-17T04:56:31.562Z,101895.00
2022-10-17T04:59:40.144Z,101895.28
2022-10-17T05:02:48.590Z,101907.03
2022-10-17T05:06:04.538Z,101891.88
2022-10-17T05:09:06.217Z,101910.53
2022-10-17T05:12:20.612Z,101911.75
2022-10-17T05:15:35.539Z,101918.25
2022-10-17T05:18:44.016Z,101920.22
2022-10-17T05:21:52.577Z,101919.97
2022-10-17T05:25:01.160Z,101932.81
2022-10-17T05:28:09.515Z,101936.00
2022-10-17T05:31:18.300Z,101928.13
2022-10-17T05:34:26.619Z,101928.00
2022-10-17T05:37:35.285Z,101943.69
2022-10-17T05:40:53.750Z,101952.22
2022-10-17T05:44:08.586Z,101958.81
2022-10-17T05:47:24.568Z,101961.38
2022-10-17T05:50:33.340Z,101955.41
2022-10-17T05:53:48.632Z,101970.09
2022-10-17T05:56:52.408Z,101981.09
2022-10-17T06:00:09.648Z,101968.13
2022-10-17T06:03:18.644Z,101986.50
2022-10-17T06:06:36.878Z,101983.91
2022-10-17T06:09:39.172Z,101993.06
2022-10-17T06:12:53.626Z,101996.03
2022-10-17T06:16:15.696Z,101995.69
2022-10-17T06:19:24.280Z,102009.41
2022-10-17T06:22:32.705Z,102010.41
2022-10-17T06:25:41.255Z,102005.59
2022-10-17T06:28:49.716Z,102017.97
2022-10-17T06:32:06.344Z,102010.59
2022-10-17T06:35:09.539Z,102015.75
2022-10-17T06:38:24.627Z,102020.63
2022-10-17T06:41:27.768Z,102035.12
2022-10-17T06:44:42.615Z,101995.63
2022-10-17T06:47:51.619Z,102039.13
2022-10-17T06:51:01.471Z,102044.09
2022-10-17T06:54:10.596Z,102038.25
2022-10-17T06:57:25.812Z,102043.06
2022-10-17T07:00:34.759Z,102045.44
2022-10-17T07:03:43.233Z,102038.00
2022-10-17T07:10:06.618Z,102052.97
2022-10-17T07:13:28.623Z,102050.87
2022-10-17T07:16:30.476Z,102057.22
2022-10-17T07:19:45.589Z,102069.22
2022-10-17T07:22:54.243Z,102068.31
2022-10-17T07:26:12.631Z,102066.06
2022-10-17T07:29:27.653Z,102063.34
2022-10-17T07:32:35.810Z,102063.78
2022-10-17T07:35:50.682Z,102073.63
2022-10-17T07:38:55.845Z,102066.63
2022-10-17T07:42:12.757Z,102067.19
2022-10-17T07:45:21.683Z,102069.63
2022-10-17T07:48:30.792Z,102084.00
2022-10-17T07:55:01.655Z,102070.44
2022-10-17T07:58:13.791Z,102078.16
2022-10-17T08:01:35.658Z,102078.22
2022-10-17T08:04:50.688Z,102070.41
2022-10-17T08:07:52.824Z,102075.69
2022-10-17T08:11:12.665Z,102089.97
2022-10-17T08:14:14.964Z,102091.63
2022-10-17T08:17:29.635Z,102090.97
2022-10-17T08:20:31.467Z,102097.38
2022-10-17T08:23:46.685Z,102094.69
2022-10-17T08:26:54.655Z,102094.87
2022-10-17T08:30:10.697Z,102097.75
2022-10-17T08:33:19.630Z,102092.88
2022-10-17T08:36:27.699Z,102095.00
2022-10-17T08:39:36.264Z,102099.03
2022-10-17T08:43:01.694Z,102087.00
2022-10-17T08:46:10.938Z,102080.25
2022-10-17T08:49:42.693Z,102082.13
2022-10-17T08:53:09.011Z,102087.78
2022-10-17T08:56:47.589Z,102081.81
2022-10-17T08:59:56.712Z,102085.09
2022-10-17T09:03:27.778Z,102088.28
2022-10-17T09:06:43.752Z,102090.66
2022-10-17T09:10:09.219Z,102087.63
2022-10-17T09:13:43.686Z,102092.44
2022-10-17T09:17:12.325Z,102085.94
2022-10-17T09:20:33.677Z,102084.47
2022-10-17T09:24:08.931Z,102084.84
2022-10-17T09:27:41.754Z,102079.09
2022-10-17T09:30:49.538Z,102074.56
2022-10-17T09:34:08.679Z,102072.06
2022-10-17T09:37:15.182Z,102071.72
2022-10-17T09:40:37.690Z,102084.19
2022-10-17T09:43:46.767Z,102082.84
2022-10-17T09:47:25.111Z,102082.50
2022-10-17T09:50:42.006Z,102085.75
2022-10-17T09:53:55.703Z,102074.66
2022-10-17T09:57:07.387Z,102074.66
2022-10-17T10:00:32.766Z,102076.66
2022-10-17T10:03:47.701Z,102082.25
2022-10-17T10:07:09.742Z,102077.97
2022-10-17T10:10:28.379Z,102081.41
2022-10-17T10:13:37.699Z,102075.94
2022-10-17T10:16:55.992Z,102067.19
2022-10-17T10:20:08.740Z,102076.91
2022-10-17T10:23:19.180Z,102071.28
2022-10-17T10:26:33.736Z,102073.00
2022-10-17T10:29:56.720Z,102065.31
2022-10-17T10:33:05.392Z,102064.59
2022-10-17T10:36:14.765Z,102064.94
2022-10-17T10:39:32.834Z,102070.44
2022-10-17T10:42:45.775Z,102057.19
2022-10-17T10:46:00.754Z,102057.56
2022-10-17T10:49:02.730Z,102049.44
2022-10-17T10:52:28.738Z,102058.47
2022-10-17T10:55:46.780Z,102053.81
2022-10-17T10:59:09.759Z,102048.16
2022-10-17T11:02:31.421Z,102048.91
2022-10-17T11:05:52.738Z,102019.22
2022-10-17T11:09:33.758Z,102040.59
2022-10-17T11:12:49.955Z,102044.47
2022-10-17T11:16:24.782Z,102045.12
2022-10-17T11:19:56.955Z,102045.41
2022-10-17T11:23:14.419Z,102038.00
2022-10-17T11:26:40.760Z,102030.03
2022-10-17T11:29:49.381Z,102024.91
2022-10-17T11:33:05.783Z,102022.87
2022-10-17T11:36:24.771Z,102015.59
2022-10-17T11:39:55.846Z,102015.22
2022-10-17T11:43:27.912Z,102007.00
2022-10-17T11:46:37.554Z,101998.25
2022-10-17T11:51:59.919Z,102004.78
2022-10-17T11:53:44.804Z,102000.88
2022-10-17T11:57:03.960Z,102008.28
2022-10-17T12:00:42.134Z,101999.91
2022-10-17T12:04:02.736Z,101991.44
2022-10-17T12:07:44.865Z,101995.84
2022-10-17T12:10:58.988Z,101990.03
2022-10-17T12:14:58.835Z,101992.00
2022-10-17T12:18:24.852Z,101979.69
2022-10-17T12:21:59.883Z,101971.31
2022-10-17T12:25:09.847Z,101970.75
2022-10-17T12:28:39.319Z,101969.25
2022-10-17T12:31:49.899Z,101969.81
2022-10-17T12:34:58.760Z,101958.47
2022-10-17T12:38:27.808Z,101957.66
2022-10-17T12:42:02.941Z,101959.25
2022-10-17T12:45:40.863Z,101963.34
2022-10-17T12:49:03.650Z,101959.66
2022-10-17T12:52:28.898Z,101951.66
2022-10-17T12:55:46.845Z,101957.59
2022-10-17T12:58:51.254Z,101949.09
2022-10-17T13:02:09.908Z,101954.56
2022-10-17T13:05:25.887Z,101944.97
2022-10-17T13:08:46.815Z,101948.66
2022-10-17T13:11:57.912Z,101944.91
2022-10-17T13:15:18.507Z,101949.22
2022-10-17T13:18:33.949Z,101949.22
2022-10-17T13:22:02.266Z,101946.59
2022-10-17T13:25:23.864Z,101936.00
2022-10-17T13:28:25.685Z,101925.44
2022-10-17T13:31:43.966Z,101937.59
2022-10-17T13:35:10.635Z,101946.09
2022-10-17T13:41:40.887Z,101935.69
2022-10-17T13:44:43.597Z,101934.50
2022-10-17T13:47:57.965Z,101942.09
2022-10-17T13:51:11.085Z,101939.34
2022-10-17T13:54:35.046Z,101936.50
2022-10-17T13:57:50.988Z,101934.25
2022-10-17T14:00:53.576Z,101937.47
2022-10-17T14:04:19.454Z,101938.31
2022-10-17T14:08:10.094Z,101928.19
2022-10-17T14:11:32.307Z,101934.59
2022-10-17T14:15:13.833Z,101931.78
2022-10-17T14:18:39.985Z,101927.03
2022-10-17T14:21:44.681Z,101925.22
2022-10-17T14:25:02.639Z,101915.31
2022-10-17T14:28:19.019Z,101909.41
2022-10-17T14:31:34.920Z,101922.59
2022-10-17T14:34:43.825Z,101914.94
2022-10-17T14:37:54.908Z,101925.78
2022-10-17T14:41:41.265Z,101923.69
2022-10-17T14:44:47.954Z,101918.56
2022-10-17T14:47:58.906Z,101920.97
2022-10-17T14:51:10.268Z,101916.72
2022-10-17T14:54:28.895Z,101916.09
2022-10-17T14:57:46.098Z,101920.53
2022-10-17T15:00:54.913Z,101920.59
2022-10-17T15:04:03.802Z,101914.34
2022-10-17T15:07:11.887Z,101922.38
2022-10-17T15:10:37.931Z,101916.59
2022-10-17T15:13:46.000Z,101914.41
2022-10-17T15:17:07.932Z,101919.38
2022-10-17T15:20:14.963Z,101924.53
2022-10-17T15:23:29.978Z,101928.16
2022-10-17T15:26:41.010Z,101933.28
2022-10-17T15:29:50.410Z,101925.25
2022-10-17T15:32:59.005Z,101929.72
2022-10-17T15:36:32.916Z,101905.91
2022-10-17T15:39:40.932Z,101928.91
2022-10-17T15:42:55.968Z,101923.97
2022-10-17T15:46:00.292Z,101943.41
2022-10-17T15:49:20.988Z,101938.41
2022-10-17T15:52:30.988Z,101941.53
2022-10-17T15:55:46.004Z,101948.72
2022-10-17T15:58:48.033Z,101957.44
2022-10-17T16:02:03.004Z,101953.78
2022-10-17T16:05:14.307Z,101934.25
2022-10-17T16:08:28.966Z,101948.06
2022-10-17T16:11:41.057Z,101961.97
2022-10-17T16:14:51.969Z,101961.50
2022-10-17T16:18:08.574Z,101964.12
2022-10-17T16:21:20.042Z,101967.34
2022-10-17T16:24:28.572Z,101966.34
2022-10-17T16:27:37.010Z,101966.84
2022-10-17T16:30:46.440Z,101974.31
2022-10-17T16:33:56.023Z,101975.31
2022-10-17T16:37:04.580Z,101967.69
2022-10-17T16:40:13.012Z,101959.50
2022-10-17T16:43:32.128Z,101965.63
2022-10-17T16:46:42.986Z,101968.84
2022-10-17T16:49:58.081Z,101976.31
2022-10-17T16:53:08.204Z,101983.78
2022-10-17T16:56:25.001Z,101983.94
2022-10-17T16:59:34.020Z,101984.81
2022-10-17T17:02:42.859Z,101987.31
2022-10-17T17:05:56.983Z,101973.50
2022-10-17T17:09:05.680Z,101986.28
2022-10-17T17:12:15.009Z,101972.28
2022-10-17T17:15:30.241Z,101985.41
2022-10-17T17:18:39.004Z,101986.37
2022-10-17T17:21:54.572Z,101988.75
2022-10-17T17:25:02.996Z,101979.28
2022-10-17T17:28:11.624Z,101979.28
2022-10-17T17:31:24.075Z,101992.91
2022-10-17T17:34:42.993Z,101990.72
2022-10-17T17:37:57.988Z,101999.41
2022-10-17T17:40:59.783Z,101984.91
2022-10-17T17:44:16.549Z,102000.75
2022-10-17T17:47:25.996Z,102000.91
2022-10-17T17:50:37.107Z,101992.37
2022-10-17T17:53:46.023Z,101991.88
2022-10-17T17:56:54.620Z,101994.88
2022-10-17T18:00:03.113Z,101994.53
2022-10-17T18:03:11.938Z,101982.06
2022-10-17T18:06:21.100Z,101996.53
2022-10-17T18:09:29.796Z,101992.41
2022-10-17T18:12:39.055Z,101997.47
2022-10-17T18:16:05.077Z,101994.25
2022-10-17T18:19:10.519Z,101987.72
2022-10-17T18:22:25.069Z,101999.97
2022-10-17T18:25:26.911Z,101994.47
2022-10-17T18:28:44.079Z,101996.44
2022-10-17T18:31:52.128Z,101992.19
2022-10-17T18:35:08.088Z,101997.94
2022-10-17T18:38:10.190Z,101985.66
2022-10-17T18:41:27.104Z,101995.16
2022-10-17T18:44:28.966Z,101992.59
2022-10-17T18:47:44.066Z,101997.81
2022-10-17T18:50:52.696Z,101993.72
2022-10-17T18:54:03.103Z,101998.31
2022-10-17T18:57:20.424Z,101999.59
2022-10-17T19:00:27.887Z,101999.75
2022-10-17T19:03:45.085Z,101994.62
2022-10-17T19:06:46.822Z,101986.63
2022-10-17T19:10:01.030Z,101988.94
2022-10-17T19:13:03.257Z,102000.28
2022-10-17T19:16:22.066Z,101999.03
2022-10-17T19:19:37.107Z,101995.63
2022-10-17T19:22:38.868Z,101991.81
2022-10-17T19:25:55.912Z,101991.28
2022-10-17T19:29:00.329Z,101996.47
2022-10-17T19:32:17.945Z,101993.53
2022-10-17T19:35:22.571Z,101977.16
2022-10-17T19:38:37.084Z,101990.56
2022-10-17T19:41:41.805Z,101993.28
2022-10-17T19:44:56.136Z,101999.87
2022-10-17T19:48:07.096Z,101990.91
2022-10-17T19:51:17.186Z,101991.88
2022-10-17T19:54:25.105Z,101990.75
2022-10-17T19:57:33.672Z,101984.75
2022-10-17T20:00:43.188Z,101992.78
2022-10-17T20:03:52.206Z,101986.50
2022-10-17T20:07:00.148Z,101991.09
2022-10-17T20:10:09.192Z,101995.03
2022-10-17T20:13:18.080Z,101993.00
2022-10-17T20:16:36.684Z,101962.56
2022-10-17T20:19:45.157Z,101994.31
2022-10-17T20:22:59.072Z,101997.34
2022-10-17T20:26:26.000Z,101999.50
2022-10-17T20:29:46.124Z,101994.53
2022-10-17T20:32:47.888Z,101994.53
2022-10-17T20:36:02.110Z,101975.75
2022-10-17T20:39:05.066Z,101990.00
2022-10-17T20:42:21.181Z,102003.25
2022-10-17T20:45:37.377Z,101997.44
2022-10-17T20:49:01.131Z,101995.28
2022-10-17T20:52:03.045Z,102001.88
2022-10-17T20:55:18.158Z,101972.34
2022-10-17T20:58:20.027Z,101994.47
2022-10-17T21:01:37.190Z,101998.88
2022-10-17T21:04:47.152Z,101995.78
2022-10-17T21:08:02.143Z,101996.75
2022-10-17T21:11:14.504Z,101992.66
2022-10-17T21:14:31.120Z,102000.22
2022-10-17T21:17:46.435Z,101999.81
2022-10-17T21:20:55.212Z,101999.69
2022-10-17T21:24:07.662Z,102000.72
2022-10-17T21:27:22.136Z,101993.47
2022-10-17T21:30:37.136Z,101998.47
2022-10-17T21:33:50.127Z,101993.78
2022-10-17T21:36:59.307Z,102006.75
2022-10-17T21:40:11.047Z,102001.75
2022-10-17T21:43:21.139Z,102001.91
2022-10-17T21:46:30.540Z,101998.50
2022-10-17T21:49:39.170Z,101997.66
2022-10-17T21:52:47.712Z,102001.50
2022-10-17T21:56:06.184Z,101992.94
2022-10-17T21:59:15.231Z,101995.94
2022-10-17T22:02:23.828Z,101998.91
2022-10-17T22:05:38.143Z,101997.50
2022-10-17T22:08:54.231Z,101989.69
2022-10-17T22:12:03.195Z,101997.34
2022-10-17T22:15:18.170Z,101994.94
2022-10-17T22:18:33.296Z,101993.63
2022-10-17T22:21:48.228Z,101985.09
2022-10-17T22:24:56.984Z,101978.81
2022-10-17T22:28:05.211Z,101984.22
2022-10-17T22:31:20.146Z,101975.66
2022-10-17T22:34:21.864Z,101978.53
2022-10-17T22:37:36.189Z,101984.22
2022-10-17T22:40:52.182Z,101981.06
2022-10-17T22:43:53.992Z,101975.81
2022-10-17T22:47:09.164Z,101979.94
2022-10-17T22:50:11.086Z,101982.22
2022-10-17T22:53:27.206Z,101984.38
2022-10-17T22:56:35.743Z,101972.69
2022-10-17T22:59:50.267Z,101979.81
2022-10-17T23:02:59.116Z,101984.47
2022-10-17T23:06:16.657Z,101967.97
2022-10-17T23:12:36.119Z,101962.41
2022-10-17T23:15:44.217Z,101963.41
2022-10-17T23:18:53.832Z,101943.00
2022-10-17T23:22:09.398Z,101950.56
2022-10-17T23:25:11.264Z,101958.38
2022-10-17T23:28:26.232Z,101950.00
2022-10-17T23:31:34.840Z,101956.81
2022-10-17T23:34:43.235Z,101949.44
2022-10-17T23:37:51.792Z,101946.72
2022-10-17T23:41:00.206Z,101950.16
2022-10-17T23:44:10.746Z,101951.00
2022-10-17T23:47:19.228Z,101957.38
2022-10-17T23:50:35.275Z,101954.56
2022-10-17T23:53:39.659Z,101945.59
2022-10-17T23:56:54.247Z,101942.03
